Time;durP1;ratioP1;P1;durP2;ratioP2;P2;SDS_P1;SDS_P2;PMS_P1;PMS_P2;Temp;Humidity;BMP_temperature;BMP_pressure;BME280_temperature;BME280_humidity;BME280_pressure;Samples;Min_cycle;Max_cycle;Signal;HPM_P1;HPM_P2
2022/01/16 06:32:12;;;;;;;;;;;;;;;3.52;100.00;102089.06;5082260;28;19942;-85
2022/01/16 06:35:48;;;;;;;;;;;;;;;3.74;100.00;102089.19;5080256;28;20020;-84
2022/01/16 06:48:51;;;;;;;;;;;;;;;4.39;100.00;102072.69;5021409;28;20045;-85
2022/01/16 07:01:21;;;;;;;;;;;;;;;4.72;100.00;102104.84;4963207;29;19929;-84
2022/01/16 07:16:43;;;;;;;;;;;;;;;4.90;100.00;102147.19;5049344;28;19943;-85
2022/01/16 07:54:00;;;;;;;;;;;;;;;5.02;100.00;102214.31;4988722;28;20447;-85
2022/01/16 07:56:25;;;;;;;;;;;;;;;5.00;100.00;102228.03;5011148;28;19945;-83
2022/01/16 07:58:50;;;;;;;;;;;;;;;4.97;100.00;102236.53;5029228;28;19927;-81
2022/01/16 08:01:16;;;;;;;;;;;;;;;4.97;100.00;102233.00;5037380;28;19948;-83
2022/01/16 08:03:41;;;;;;;;;;;;;;;4.95;100.00;102232.88;5072174;28;19925;-84
2022/01/16 08:06:06;;;;;;;;;;;;;;;5.00;100.00;102239.41;5037369;28;19947;-83
2022/01/16 08:08:32;;;;;;;;;;;;;;;4.96;100.00;102237.31;5024483;28;19929;-82
2022/01/16 08:10:57;;;;;;;;;;;;;;;4.97;100.00;102241.78;5040656;28;19917;-82
2022/01/16 08:13:22;;;;;;;;;;;;;;;5.07;100.00;102229.47;5039509;28;19927;-83
2022/01/16 08:15:47;;;;;;;;;;;;;;;5.11;100.00;102229.81;5069907;28;19925;-81
2022/01/16 08:18:13;;;;;;;;;;;;;;;5.16;100.00;102230.19;5064129;28;19923;-83
2022/01/16 08:20:38;;;;;;;;;;;;;;;5.10;100.00;102224.47;5052653;28;20384;-84
2022/01/16 08:23:07;;;;;;;;;;;;;;;5.09;100.00;102218.31;5049963;28;19921;-83
2022/01/16 08:25:33;;;;;;;;;;;;;;;5.09;100.00;102214.81;5049044;28;19921;-83
2022/01/16 08:27:58;;;;;;;;;;;;;;;5.09;100.00;102212.19;5055412;28;19931;-85
2022/01/16 08:30:23;;;;;;;;;;;;;;;5.04;100.00;102210.13;5064326;28;19920;-84
2022/01/16 08:32:50;;;;;;;;;;;;;;;5.05;100.00;102205.84;5096514;28;19920;-85
2022/01/16 08:35:15;;;;;;;;;;;;;;;4.94;100.00;102218.03;5096748;28;19920;-83
2022/01/16 08:37:40;;;;;;;;;;;;;;;4.91;100.00;102207.34;5069205;28;20276;-83
2022/01/16 08:40:08;;;;;;;;;;;;;;;4.91;100.00;102206.41;5096345;28;19920;-82
2022/01/16 08:42:36;;;;;;;;;;;;;;;4.87;100.00;102207.88;5077734;28;19959;-84
2022/01/16 08:45:02;;;;;;;;;;;;;;;4.86;100.00;102206.03;5067952;28;19928;-85
2022/01/16 08:47:28;;;;;;;;;;;;;;;4.85;100.00;102210.34;5091774;28;19920;-83
2022/01/16 08:49:53;;;;;;;;;;;;;;;4.80;100.00;102214.28;5053374;28;19969;-82
2022/01/16 08:52:21;;;;;;;;;;;;;;;4.78;100.00;102210.63;5068025;28;19926;-82
2022/01/16 08:54:47;;;;;;;;;;;;;;;4.77;100.00;102224.50;5074769;28;20829;-82
2022/01/16 08:57:12;;;;;;;;;;;;;;;4.79;100.00;102224.63;5077599;28;19920;-82
2022/01/16 08:59:37;;;;;;;;;;;;;;;4.75;100.00;102220.81;5081642;28;19920;-85
2022/01/16 09:02:02;;;;;;;;;;;;;;;4.74;100.00;102224.25;5067116;28;20352;-85
2022/01/16 09:04:27;;;;;;;;;;;;;;;4.77;100.00;102228.78;5080609;28;19920;-83
2022/01/16 09:06:53;;;;;;;;;;;;;;;4.74;100.00;102229.47;5097308;28;19916;-84
2022/01/16 09:09:18;;;;;;;;;;;;;;;4.70;100.00;102232.59;5096304;28;19924;-85
2022/01/16 09:11:46;;;;;;;;;;;;;;;4.70;100.00;102229.09;5058659;28;19927;-86
2022/01/16 09:14:11;;;;;;;;;;;;;;;4.65;100.00;102229.59;5067228;28;19923;-83
2022/01/16 09:16:36;;;;;;;;;;;;;;;4.64;100.00;102225.16;5079362;28;19920;-83
2022/01/16 09:19:02;;;;;;;;;;;;;;;4.68;100.00;102223.72;5092591;28;20355;-82
2022/01/16 09:21:27;;;;;;;;;;;;;;;4.72;100.00;102220.56;5075444;28;20046;-81
2022/01/16 09:23:52;;;;;;;;;;;;;;;4.72;100.00;102230.09;5075842;28;20340;-82
2022/01/16 09:26:19;;;;;;;;;;;;;;;4.72;100.00;102243.16;5098332;28;19920;-82
2022/01/16 09:28:45;;;;;;;;;;;;;;;4.71;100.00;102244.88;5052507;28;19928;-82
2022/01/16 09:31:10;;;;;;;;;;;;;;;4.70;100.00;102244.75;5072546;28;19920;-84
2022/01/16 09:33:36;;;;;;;;;;;;;;;4.73;100.00;102258.03;5072104;28;19924;-85
2022/01/16 09:36:02;;;;;;;;;;;;;;;4.74;100.00;102257.22;5078613;28;19924;-84
2022/01/16 09:38:29;;;;;;;;;;;;;;;4.73;100.00;102261.53;5062085;28;20027;-84
2022/01/16 09:40:54;;;;;;;;;;;;;;;4.71;100.00;102254.38;5077970;28;19924;-86
2022/01/16 09:43:21;;;;;;;;;;;;;;;4.71;100.00;102268.34;5092762;28;19920;-83
2022/01/16 09:45:46;;;;;;;;;;;;;;;4.78;100.00;102261.94;5073146;28;19924;-85
2022/01/16 09:48:11;;;;;;;;;;;;;;;4.75;100.00;102259.06;5063909;28;19931;-84
2022/01/16 09:50:37;;;;;;;;;;;;;;;4.76;100.00;102261.81;5071149;28;20253;-84
2022/01/16 09:53:09;;;;;;;;;;;;;;;4.74;100.00;102262.44;5074626;28;19932;-83
2022/01/16 09:55:35;;;;;;;;;;;;;;;4.73;100.00;102271.09;5053432;28;20027;-84
2022/01/16 09:58:00;;;;;;;;;;;;;;;4.75;100.00;102267.78;5075737;28;20009;-84
2022/01/16 10:00:26;;;;;;;;;;;;;;;4.74;100.00;102270.28;5075994;28;20531;-86
2022/01/16 10:03:03;;;;;;;;;;;;;;;4.73;100.00;102278.91;5078233;28;19928;-83
2022/01/16 10:05:32;;;;;;;;;;;;;;;4.69;100.00;102288.16;5061243;28;19962;-84
2022/01/16 10:08:02;;;;;;;;;;;;;;;4.68;100.00;102276.81;5073448;28;19924;-83
2022/01/16 10:10:28;;;;;;;;;;;;;;;4.62;100.00;102289.38;5076971;28;19926;-82
2022/01/16 10:13:17;;;;;;;;;;;;;;;4.58;100.00;102289.88;5095755;28;19955;-82
2022/01/16 10:15:52;;;;;;;;;;;;;;;4.58;100.00;102295.09;5042874;28;19956;-82
2022/01/16 10:18:30;;;;;;;;;;;;;;;4.58;100.00;102287.28;5065128;28;19920;-84
2022/01/16 10:20:55;;;;;;;;;;;;;;;4.53;100.00;102283.38;5081949;28;19924;-83
2022/01/16 10:23:25;;;;;;;;;;;;;;;4.57;100.00;102277.66;5073006;28;19920;-84
2022/01/16 10:25:51;;;;;;;;;;;;;;;4.56;100.00;102286.25;5099865;28;19921;-83
2022/01/16 10:28:17;;;;;;;;;;;;;;;4.55;100.00;102283.50;5083894;28;19920;-83
2022/01/16 10:30:47;;;;;;;;;;;;;;;4.56;100.00;102291.47;5100912;28;19928;-84
2022/01/16 10:33:14;;;;;;;;;;;;;;;4.57;100.00;102292.38;5098800;28;19995;-84
2022/01/16 10:35:41;;;;;;;;;;;;;;;4.58;100.00;102304.63;5092473;28;19927;-85
2022/01/16 10:38:08;;;;;;;;;;;;;;;4.62;100.00;102305.03;5081088;28;19920;-83
2022/01/16 10:40:36;;;;;;;;;;;;;;;4.75;100.00;102295.59;5097317;28;20280;-85
2022/01/16 10:43:13;;;;;;;;;;;;;;;4.81;100.00;102288.28;5061285;28;19967;-82
2022/01/16 10:45:39;;;;;;;;;;;;;;;4.95;100.00;102298.13;5074861;28;19921;-85
2022/01/16 10:48:05;;;;;;;;;;;;;;;5.02;100.00;102299.56;5069554;28;19979;-82
2022/01/16 10:50:30;;;;;;;;;;;;;;;5.08;100.00;102294.84;5077424;28;19928;-86
2022/01/16 10:53:16;;;;;;;;;;;;;;;5.15;100.00;102296.25;5084270;28;19924;-83
2022/01/16 10:55:44;;;;;;;;;;;;;;;5.20;100.00;102300.13;5083238;28;20405;-83
2022/01/16 10:58:09;;;;;;;;;;;;;;;5.18;100.00;102297.41;5083384;28;19920;-83
2022/01/16 11:00:35;;;;;;;;;;;;;;;5.11;100.00;102291.56;5083849;28;19961;-83
2022/01/16 11:03:14;;;;;;;;;;;;;;;5.15;100.00;102298.88;5067770;28;19974;-83
2022/01/16 11:05:45;;;;;;;;;;;;;;;5.18;100.00;102286.06;5079818;28;19920;-83
2022/01/16 11:08:14;;;;;;;;;;;;;;;5.22;100.00;102288.13;5081157;28;19926;-83
2022/01/16 11:10:41;;;;;;;;;;;;;;;5.31;100.00;102281.00;5081245;28;19920;-85
2022/01/16 11:13:09;;;;;;;;;;;;;;;5.19;100.00;102272.22;5082396;28;19974;-84
2022/01/16 11:15:36;;;;;;;;;;;;;;;5.29;100.00;102272.16;5081825;28;19920;-83
2022/01/16 11:18:02;;;;;;;;;;;;;;;5.36;100.00;102277.09;5078430;28;19921;-84
2022/01/16 11:20:35;;;;;;;;;;;;;;;5.44;100.00;102279.38;5093865;28;19958;-83
2022/01/16 11:25:36;;;;;;;;;;;;;;;5.60;100.00;102282.44;5092441;28;19920;-83
2022/01/16 11:28:22;;;;;;;;;;;;;;;5.67;100.00;102286.44;5073345;28;19920;-85
2022/01/16 11:30:49;;;;;;;;;;;;;;;5.72;100.00;102291.25;5078062;28;19927;-84
2022/01/16 11:33:15;;;;;;;;;;;;;;;5.78;100.00;102289.88;5064421;28;19931;-84
2022/01/16 11:35:45;;;;;;;;;;;;;;;5.80;100.00;102284.00;5077961;28;19964;-85
2022/01/16 11:38:13;;;;;;;;;;;;;;;5.86;100.00;102297.56;5098490;28;20007;-83
2022/01/16 11:40:45;;;;;;;;;;;;;;;5.89;100.00;102299.50;5076369;28;19970;-84
2022/01/16 11:43:14;;;;;;;;;;;;;;;5.84;100.00;102298.22;5099359;28;19950;-84
2022/01/16 11:45:51;;;;;;;;;;;;;;;5.95;100.00;102294.75;5069420;28;20052;-84
2022/01/16 11:48:36;;;;;;;;;;;;;;;5.98;100.00;102296.72;5068761;28;19920;-85
2022/01/16 11:51:06;;;;;;;;;;;;;;;6.13;100.00;102291.75;5072177;28;19931;-84
2022/01/16 11:53:54;;;;;;;;;;;;;;;6.16;100.00;102284.16;5069583;28;20429;-83
2022/01/16 11:56:35;;;;;;;;;;;;;;;6.19;100.00;102279.16;5077688;28;19950;-84
2022/01/16 11:59:12;;;;;;;;;;;;;;;6.24;100.00;102288.25;5080025;28;19977;-84
2022/01/16 12:01:43;;;;;;;;;;;;;;;6.31;100.00;102287.94;5070914;28;19921;-85
2022/01/16 12:04:28;;;;;;;;;;;;;;;6.23;100.00;102287.34;5060814;28;20303;-85
2022/01/16 12:07:02;;;;;;;;;;;;;;;6.22;100.00;102289.84;5073186;28;19989;-84
2022/01/16 12:09:50;;;;;;;;;;;;;;;6.24;100.00;102294.38;5072069;28;20024;-84
2022/01/16 12:12:16;;;;;;;;;;;;;;;6.24;100.00;102285.66;5059901;28;19920;-85
2022/01/16 12:14:57;;;;;;;;;;;;;;;6.27;100.00;102291.09;5075448;28;19928;-83
2022/01/16 12:17:29;;;;;;;;;;;;;;;6.30;100.00;102288.72;5079274;28;19931;-84
2022/01/16 12:19:55;;;;;;;;;;;;;;;6.29;100.00;102295.69;5060127;28;19935;-84
2022/01/16 12:22:44;;;;;;;;;;;;;;;6.26;100.00;102304.97;5079271;28;19920;-84
2022/01/16 12:25:18;;;;;;;;;;;;;;;6.26;100.00;102320.66;5071533;28;19920;-84
2022/01/16 12:28:02;;;;;;;;;;;;;;;6.27;100.00;102322.50;5063832;28;19920;-84
2022/01/16 12:30:44;;;;;;;;;;;;;;;6.32;100.00;102308.06;5070813;28;20399;-84
2022/01/16 12:33:18;;;;;;;;;;;;;;;6.37;100.00;102313.66;5068927;28;19920;-84
2022/01/16 12:35:45;;;;;;;;;;;;;;;6.34;100.00;102313.41;5074687;28;19920;-83
2022/01/16 12:38:15;;;;;;;;;;;;;;;6.32;100.00;102315.91;5083058;28;20284;-84
2022/01/16 12:40:43;;;;;;;;;;;;;;;6.35;100.00;102316.16;5071274;28;19920;-85
2022/01/16 12:43:27;;;;;;;;;;;;;;;6.39;100.00;102318.22;5070145;28;19920;-83
2022/01/16 12:45:53;;;;;;;;;;;;;;;6.38;100.00;102313.75;5076806;28;19920;-83
2022/01/16 12:48:20;;;;;;;;;;;;;;;6.42;100.00;102314.94;5074336;28;19920;-86
2022/01/16 12:50:46;;;;;;;;;;;;;;;6.43;100.00;102311.50;5079657;28;19927;-83
2022/01/16 12:53:29;;;;;;;;;;;;;;;6.43;100.00;102312.44;5073823;28;19992;-83
2022/01/16 12:55:54;;;;;;;;;;;;;;;6.40;100.00;102314.81;5050325;28;19959;-85
2022/01/16 12:58:21;;;;;;;;;;;;;;;6.43;100.00;102303.66;5074089;28;20268;-84
2022/01/16 13:00:59;;;;;;;;;;;;;;;6.43;100.00;102299.34;5070161;28;19951;-84
2022/01/16 13:03:33;;;;;;;;;;;;;;;6.47;100.00;102301.38;5073653;28;20073;-84
2022/01/16 13:06:19;;;;;;;;;;;;;;;6.50;100.00;102312.91;5070045;28;19916;-83
2022/01/16 13:09:04;;;;;;;;;;;;;;;6.46;100.00;102312.66;5097494;28;19920;-84
2022/01/16 13:11:33;;;;;;;;;;;;;;;6.54;100.00;102321.09;5076660;28;19976;-84
2022/01/16 13:14:09;;;;;;;;;;;;;;;6.56;100.00;102302.91;5102290;28;20060;-83
2022/01/16 13:16:36;;;;;;;;;;;;;;;6.56;100.00;102295.94;5068765;28;20039;-83
2022/01/16 13:19:01;;;;;;;;;;;;;;;6.56;100.00;102301.19;5075639;28;19944;-84
2022/01/16 13:21:33;;;;;;;;;;;;;;;6.52;100.00;102298.22;5075578;28;19920;-83
2022/01/16 13:24:05;;;;;;;;;;;;;;;6.53;100.00;102305.28;5077911;28;19954;-83
2022/01/16 13:26:32;;;;;;;;;;;;;;;6.41;100.00;102300.91;5077628;28;19920;-83
2022/01/16 13:29:02;;;;;;;;;;;;;;;6.50;100.00;102302.44;5060965;28;20015;-83
2022/01/16 13:31:28;;;;;;;;;;;;;;;6.53;100.00;102294.81;5079628;28;19955;-85
2022/01/16 13:34:13;;;;;;;;;;;;;;;6.51;100.00;102296.38;5071737;28;19920;-84
2022/01/16 13:36:48;;;;;;;;;;;;;;;6.51;100.00;102281.59;5078141;28;20285;-84
2022/01/16 13:39:14;;;;;;;;;;;;;;;6.51;100.00;102288.53;5078086;28;19970;-83
2022/01/16 13:41:43;;;;;;;;;;;;;;;6.51;100.00;102304.22;5089537;28;19920;-85
2022/01/16 13:44:31;;;;;;;;;;;;;;;6.51;100.00;102294.69;5073780;28;19968;-83
2022/01/16 13:46:56;;;;;;;;;;;;;;;6.40;100.00;102299.13;5079075;28;19916;-83
2022/01/16 13:49:22;;;;;;;;;;;;;;;6.46;100.00;102293.41;5089564;28;19923;-83
2022/01/16 13:51:54;;;;;;;;;;;;;;;6.43;100.00;102299.34;5067600;28;19981;-83
2022/01/16 13:54:31;;;;;;;;;;;;;;;6.46;100.00;102303.88;5086822;28;19920;-82
2022/01/16 13:56:59;;;;;;;;;;;;;;;6.43;100.00;102298.41;5074146;28;19920;-82
2022/01/16 13:59:25;;;;;;;;;;;;;;;6.49;100.00;102297.97;5055712;28;19951;-82
2022/01/16 14:01:52;;;;;;;;;;;;;;;6.43;100.00;102295.78;5071629;28;20364;-82
2022/01/16 14:04:17;;;;;;;;;;;;;;;6.41;100.00;102289.53;5093669;28;19962;-83
2022/01/16 14:06:50;;;;;;;;;;;;;;;6.40;100.00;102298.19;5076658;28;19920;-82
2022/01/16 14:09:16;;;;;;;;;;;;;;;6.39;100.00;102299.00;5099952;28;19915;-81
2022/01/16 14:11:45;;;;;;;;;;;;;;;6.35;100.00;102297.84;5095964;28;20010;-82
2022/01/16 14:14:11;;;;;;;;;;;;;;;6.38;100.00;102308.53;5054875;28;20329;-83
2022/01/16 14:16:41;;;;;;;;;;;;;;;6.31;100.00;102303.66;5054591;28;19925;-81
2022/01/16 14:19:09;;;;;;;;;;;;;;;6.31;100.00;102314.09;5070300;28;19916;-84
2022/01/16 14:21:59;;;;;;;;;;;;;;;6.31;100.00;102306.25;5062862;28;19921;-84
2022/01/16 14:24:25;;;;;;;;;;;;;;;6.36;100.00;102311.84;5074212;28;19920;-82
2022/01/16 14:26:55;;;;;;;;;;;;;;;6.40;100.00;102320.03;5072850;28;19920;-83
2022/01/16 14:29:22;;;;;;;;;;;;;;;6.35;100.00;102321.38;5064697;28;19927;-82
2022/01/16 14:31:49;;;;;;;;;;;;;;;6.33;100.00;102312.50;5063590;28;19942;-82
2022/01/16 14:34:16;;;;;;;;;;;;;;;6.31;100.00;102308.88;5071490;28;20001;-82
2022/01/16 14:36:42;;;;;;;;;;;;;;;6.35;100.00;102312.63;5072560;28;20284;-83
2022/01/16 14:39:08;;;;;;;;;;;;;;;6.35;100.00;102313.53;5066717;28;19988;-84
2022/01/16 14:41:35;;;;;;;;;;;;;;;6.28;100.00;102321.72;5074077;28;20265;-83
2022/01/16 14:44:16;;;;;;;;;;;;;;;6.27;100.00;102318.16;5054924;28;20347;-83
2022/01/16 14:46:42;;;;;;;;;;;;;;;6.39;100.00;102328.69;5064335;28;19925;-83
2022/01/16 14:49:07;;;;;;;;;;;;;;;6.39;100.00;102336.53;5072907;28;20014;-83
2022/01/16 14:51:33;;;;;;;;;;;;;;;6.40;100.00;102340.97;5072233;28;19946;-83
2022/01/16 14:54:02;;;;;;;;;;;;;;;6.42;100.00;102338.47;5086490;28;20243;-83
2022/01/16 14:56:28;;;;;;;;;;;;;;;6.44;100.00;102340.41;5090846;28;19980;-83
2022/01/16 14:58:53;;;;;;;;;;;;;;;6.44;100.00;102348.25;5081510;28;20392;-83
2022/01/16 15:01:18;;;;;;;;;;;;;;;6.44;100.00;102352.59;5085112;28;19974;-83
2022/01/16 15:03:48;;;;;;;;;;;;;;;6.45;100.00;102351.81;5072673;28;19927;-82
2022/01/16 15:06:13;;;;;;;;;;;;;;;6.46;100.00;102351.91;5086442;28;19920;-83
2022/01/16 15:08:44;;;;;;;;;;;;;;;6.49;100.00;102350.31;5094103;28;19978;-81
2022/01/16 15:11:10;;;;;;;;;;;;;;;6.48;100.00;102354.66;5078844;28;20011;-81
2022/01/16 15:13:40;;;;;;;;;;;;;;;6.50;100.00;102360.91;5087572;28;19959;-81
2022/01/16 15:16:06;;;;;;;;;;;;;;;6.50;100.00;102353.06;5078524;28;19920;-81
2022/01/16 15:18:34;;;;;;;;;;;;;;;6.56;100.00;102363.09;5064505;28;19931;-82
2022/01/16 15:21:02;;;;;;;;;;;;;;;6.51;100.00;102365.34;5074044;28;20369;-81
2022/01/16 15:23:28;;;;;;;;;;;;;;;6.50;100.00;102368.75;5069571;28;20011;-81
2022/01/16 15:25:56;;;;;;;;;;;;;;;6.59;100.00;102373.78;5076655;28;19946;-81
2022/01/16 15:28:21;;;;;;;;;;;;;;;6.55;100.00;102366.50;5081604;28;19917;-81
2022/01/16 15:30:49;;;;;;;;;;;;;;;6.59;100.00;102373.78;5075448;28;19920;-82
2022/01/16 15:33:14;;;;;;;;;;;;;;;6.57;100.00;102368.44;5068640;28;19925;-80
2022/01/16 15:35:42;;;;;;;;;;;;;;;6.65;100.00;102361.19;5086266;28;19946;-82
2022/01/16 15:38:09;;;;;;;;;;;;;;;6.62;100.00;102369.69;5078168;28;20391;-82
2022/01/16 15:40:36;;;;;;;;;;;;;;;6.58;100.00;102367.63;5074031;28;20066;-82
2022/01/16 15:43:10;;;;;;;;;;;;;;;6.50;100.00;102375.72;5066741;28;19947;-82
2022/01/16 15:45:35;;;;;;;;;;;;;;;6.40;100.00;102369.75;5070268;28;19932;-82
2022/01/16 15:48:01;;;;;;;;;;;;;;;6.29;100.00;102378.47;5065198;28;20284;-82
2022/01/16 15:50:27;;;;;;;;;;;;;;;6.22;100.00;102378.81;5075002;28;19920;-82
2022/01/16 15:52:53;;;;;;;;;;;;;;;6.12;100.00;102379.75;5073001;28;19984;-81
2022/01/16 15:55:19;;;;;;;;;;;;;;;6.03;100.00;102385.19;5063569;28;19920;-81
2022/01/16 15:57:49;;;;;;;;;;;;;;;5.98;100.00;102389.16;5094383;28;19926;-81
2022/01/16 16:00:21;;;;;;;;;;;;;;;5.90;100.00;102398.03;5095968;28;20017;-81
2022/01/16 16:02:54;;;;;;;;;;;;;;;5.78;100.00;102402.28;5087670;28;19920;-81
2022/01/16 16:05:19;;;;;;;;;;;;;;;5.68;100.00;102401.56;5098380;28;20289;-81
2022/01/16 16:07:45;;;;;;;;;;;;;;;5.58;100.00;102414.69;5098117;28;19928;-81
2022/01/16 16:10:11;;;;;;;;;;;;;;;5.50;100.00;102410.50;5077922;28;19964;-81
2022/01/16 16:12:38;;;;;;;;;;;;;;;5.44;100.00;102430.91;5076016;28;20332;-81
2022/01/16 16:15:04;;;;;;;;;;;;;;;5.50;100.00;102427.13;5095618;28;19920;-81
2022/01/16 16:17:30;;;;;;;;;;;;;;;5.59;100.00;102442.63;5094900;28;19947;-81
2022/01/16 16:19:55;;;;;;;;;;;;;;;5.52;100.00;102436.00;5077359;28;20295;-81
2022/01/16 16:22:22;;;;;;;;;;;;;;;5.49;100.00;102446.19;5077619;28;20390;-80
2022/01/16 16:24:48;;;;;;;;;;;;;;;5.53;100.00;102453.50;5069031;28;19935;-80
2022/01/16 16:27:13;;;;;;;;;;;;;;;5.63;100.00;102470.84;5077140;28;19916;-80
2022/01/16 16:29:39;;;;;;;;;;;;;;;5.73;100.00;102470.81;5095182;28;19920;-82
2022/01/16 16:32:16;;;;;;;;;;;;;;;5.80;100.00;102474.84;5076761;28;19924;-81
2022/01/16 16:34:42;;;;;;;;;;;;;;;5.92;100.00;102488.00;5077396;28;20433;-82
2022/01/16 16:37:07;;;;;;;;;;;;;;;5.99;100.00;102495.56;5077239;28;19920;-82
2022/01/16 16:39:32;;;;;;;;;;;;;;;6.00;100.00;102499.13;5076594;28;19964;-82
2022/01/16 16:41:58;;;;;;;;;;;;;;;6.02;100.00;102508.88;5060312;28;20018;-82
2022/01/16 16:44:30;;;;;;;;;;;;;;;5.99;100.00;102513.88;5076159;28;20463;-81
2022/01/16 16:46:56;;;;;;;;;;;;;;;6.03;100.00;102521.19;5075115;28;19924;-82
2022/01/16 16:49:21;;;;;;;;;;;;;;;6.08;100.00;102532.94;5066649;28;19974;-82
2022/01/16 16:51:48;;;;;;;;;;;;;;;6.06;100.00;102537.13;5088374;28;19981;-82
2022/01/16 16:54:13;;;;;;;;;;;;;;;6.07;100.00;102540.66;5072415;28;20357;-80
2022/01/16 16:56:38;;;;;;;;;;;;;;;6.07;100.00;102541.53;5091415;28;19927;-81
2022/01/16 16:59:04;;;;;;;;;;;;;;;6.11;100.00;102548.88;5092921;28;19927;-80
2022/01/16 17:01:29;;;;;;;;;;;;;;;6.13;100.00;102553.31;5077952;28;19921;-81
2022/01/16 17:04:04;;;;;;;;;;;;;;;6.13;100.00;102546.38;5075330;28;19930;-79
2022/01/16 17:06:29;;;;;;;;;;;;;;;6.10;100.00;102553.97;5076411;28;19920;-81
2022/01/16 17:08:54;;;;;;;;;;;;;;;6.01;100.00;102553.22;5076314;28;20283;-82
2022/01/16 17:11:20;;;;;;;;;;;;;;;5.93;100.00;102561.34;5063761;28;19920;-82
2022/01/16 17:13:50;;;;;;;;;;;;;;;5.84;100.00;102557.97;5061173;28;19928;-81
2022/01/16 17:16:16;;;;;;;;;;;;;;;5.79;100.00;102564.50;5084308;28;20066;-81
2022/01/16 17:18:42;;;;;;;;;;;;;;;5.81;100.00;102580.31;5042644;28;19931;-81
2022/01/16 17:21:07;;;;;;;;;;;;;;;5.96;100.00;102578.97;5072777;28;19997;-82
2022/01/16 17:23:33;;;;;;;;;;;;;;;5.95;100.00;102582.38;5089784;28;20364;-82
2022/01/16 17:25:58;;;;;;;;;;;;;;;5.95;100.00;102590.22;5074029;28;19924;-81
2022/01/16 17:28:23;;;;;;;;;;;;;;;5.90;100.00;102587.22;5071943;28;19916;-82
2022/01/16 17:30:49;;;;;;;;;;;;;;;5.91;100.00;102598.59;5068175;28;20329;-82
2022/01/16 17:33:17;;;;;;;;;;;;;;;5.92;100.00;102601.34;5073462;28;19927;-83
2022/01/16 17:35:42;;;;;;;;;;;;;;;5.95;100.00;102598.06;5071449;28;19932;-82
2022/01/16 17:38:07;;;;;;;;;;;;;;;5.89;100.00;102616.78;5076733;28;19920;-81
2022/01/16 17:40:33;;;;;;;;;;;;;;;5.86;100.00;102610.38;5056575;28;20261;-82
2022/01/16 17:42:59;;;;;;;;;;;;;;;5.83;100.00;102602.28;5057051;28;19920;-82
2022/01/16 17:45:24;;;;;;;;;;;;;;;5.85;100.00;102613.78;5071658;28;20288;-82
2022/01/16 17:47:49;;;;;;;;;;;;;;;5.85;100.00;102603.31;5072418;28;19955;-82
2022/01/16 17:50:19;;;;;;;;;;;;;;;5.85;100.00;102609.44;5073186;28;19970;-82
2022/01/16 17:52:45;;;;;;;;;;;;;;;5.85;100.00;102613.78;5093039;28;19920;-81
2022/01/16 17:55:11;;;;;;;;;;;;;;;5.85;100.00;102624.22;5062238;28;19927;-82
2022/01/16 17:57:36;;;;;;;;;;;;;;;5.83;100.00;102613.66;5072661;28;19928;-82
2022/01/16 18:00:01;;;;;;;;;;;;;;;5.81;100.00;102619.53;5073126;28;20022;-81
2022/01/16 18:02:33;;;;;;;;;;;;;;;5.80;100.00;102615.09;5085191;28;19921;-81
2022/01/16 18:04:58;;;;;;;;;;;;;;;5.77;100.00;102597.44;5060843;28;19920;-81
2022/01/16 18:07:30;;;;;;;;;;;;;;;5.74;100.00;102610.25;5067338;28;20387;-81
2022/01/16 18:09:55;;;;;;;;;;;;;;;5.73;100.00;102617.19;5076192;28;19951;-82
2022/01/16 18:12:22;;;;;;;;;;;;;;;5.74;100.00;102613.78;5075925;28;19927;-81
2022/01/16 18:14:48;;;;;;;;;;;;;;;5.77;100.00;102620.97;5059597;28;19928;-81
2022/01/16 18:17:13;;;;;;;;;;;;;;;5.77;100.00;102625.31;5094343;28;20426;-81
2022/01/16 18:19:39;;;;;;;;;;;;;;;5.78;100.00;102632.34;5075954;28;19927;-81
2022/01/16 18:22:05;;;;;;;;;;;;;;;5.77;100.00;102626.19;5094241;28;19920;-81
2022/01/16 18:24:31;;;;;;;;;;;;;;;5.78;100.00;102627.09;5075736;28;19927;-82
2022/01/16 18:26:56;;;;;;;;;;;;;;;5.73;100.00;102635.50;5075643;28;20007;-82
2022/01/16 18:29:22;;;;;;;;;;;;;;;5.71;100.00;102641.38;5075571;28;20029;-81
2022/01/16 18:31:51;;;;;;;;;;;;;;;5.72;100.00;102645.81;5067810;28;20021;-81
2022/01/16 18:34:18;;;;;;;;;;;;;;;5.77;100.00;102656.66;5074710;28;19977;-81
2022/01/16 18:36:43;;;;;;;;;;;;;;;5.82;100.00;102660.56;5079070;28;19927;-81
2022/01/16 18:39:09;;;;;;;;;;;;;;;5.82;100.00;102663.19;5076192;28;19951;-81
2022/01/16 18:41:34;;;;;;;;;;;;;;;5.84;100.00;102659.00;5072581;28;19924;-82
2022/01/16 18:44:01;;;;;;;;;;;;;;;5.87;100.00;102667.09;5097515;28;19924;-81
2022/01/16 18:46:28;;;;;;;;;;;;;;;5.87;100.00;102677.56;5065440;28;19920;-80
2022/01/16 18:48:55;;;;;;;;;;;;;;;5.86;100.00;102671.41;5078606;28;19920;-80
2022/01/16 18:51:24;;;;;;;;;;;;;;;5.87;100.00;102678.50;5096242;28;19958;-81
2022/01/16 18:53:51;;;;;;;;;;;;;;;5.88;100.00;102685.53;5079343;28;19915;-81
2022/01/16 18:56:16;;;;;;;;;;;;;;;5.92;100.00;102690.25;5078367;28;19920;-82
2022/01/16 18:58:41;;;;;;;;;;;;;;;5.92;100.00;102687.63;5079232;28;19981;-81
2022/01/16 19:01:07;;;;;;;;;;;;;;;5.97;100.00;102690.66;5089350;28;19959;-81
2022/01/16 19:03:35;;;;;;;;;;;;;;;5.94;100.00;102698.22;5078470;28;19927;-81
2022/01/16 19:06:00;;;;;;;;;;;;;;;5.94;100.00;102696.50;5096597;28;19927;-82
2022/01/16 19:08:26;;;;;;;;;;;;;;;5.99;100.00;102699.53;5078612;28;19920;-81
2022/01/16 19:10:52;;;;;;;;;;;;;;;6.02;100.00;102701.50;5075900;28;20379;-81
2022/01/16 19:13:20;;;;;;;;;;;;;;;6.05;100.00;102701.78;5058291;28;19970;-81
2022/01/16 19:15:45;;;;;;;;;;;;;;;6.03;100.00;102695.47;5068572;28;19927;-83
2022/01/16 19:18:11;;;;;;;;;;;;;;;6.02;100.00;102699.81;5088479;28;19920;-82
2022/01/16 19:20:36;;;;;;;;;;;;;;;6.00;100.00;102703.09;5079054;28;20268;-82
2022/01/16 19:23:10;;;;;;;;;;;;;;;6.03;100.00;102709.50;5108842;28;19930;-83
2022/01/16 19:25:36;;;;;;;;;;;;;;;6.01;100.00;102707.50;5090230;28;19920;-83
2022/01/16 19:28:02;;;;;;;;;;;;;;;6.03;100.00;102709.50;5068487;28;19926;-83
2022/01/16 19:30:28;;;;;;;;;;;;;;;6.03;100.00;102714.72;5074056;28;19927;-83
2022/01/16 19:32:54;;;;;;;;;;;;;;;6.04;100.00;102706.06;5077021;28;19920;-83
2022/01/16 19:35:19;;;;;;;;;;;;;;;6.04;100.00;102716.53;5078376;28;19980;-83
2022/01/16 19:37:46;;;;;;;;;;;;;;;6.06;100.00;102717.59;5087416;28;19920;-84
2022/01/16 19:40:13;;;;;;;;;;;;;;;6.02;100.00;102712.88;5100122;28;19977;-82
2022/01/16 19:45:32;;;;;;;;;;;;;;;6.04;100.00;102723.47;5088842;28;19927;-81
2022/01/16 19:47:57;;;;;;;;;;;;;;;6.02;100.00;102732.91;5073255;28;20036;-81
2022/01/16 19:50:23;;;;;;;;;;;;;;;5.94;100.00;102735.72;5077800;28;20348;-81
2022/01/16 19:52:50;;;;;;;;;;;;;;;5.96;100.00;102734.97;5109107;28;19915;-80
2022/01/16 19:55:16;;;;;;;;;;;;;;;5.95;100.00;102739.28;5098391;28;19930;-81
2022/01/16 19:57:41;;;;;;;;;;;;;;;5.94;100.00;102743.56;5098464;28;19924;-81
2022/01/16 20:00:08;;;;;;;;;;;;;;;5.94;100.00;102743.56;5097347;28;20011;-82
2022/01/16 20:02:44;;;;;;;;;;;;;;;5.96;100.00;102742.81;5077339;28;20023;-81
2022/01/16 20:05:10;;;;;;;;;;;;;;;5.93;100.00;102743.44;5090002;28;19920;-81
2022/01/16 20:07:37;;;;;;;;;;;;;;;5.94;100.00;102750.50;5095877;28;19931;-82
2022/01/16 20:10:05;;;;;;;;;;;;;;;5.98;100.00;102750.03;5078152;28;19924;-82
2022/01/16 20:12:32;;;;;;;;;;;;;;;5.98;100.00;102755.28;5057784;28;20314;-82
2022/01/16 20:14:57;;;;;;;;;;;;;;;5.96;100.00;102758.50;5084323;28;20364;-82
2022/01/16 20:17:22;;;;;;;;;;;;;;;5.94;100.00;102753.13;5076489;28;19927;-81
2022/01/16 20:19:48;;;;;;;;;;;;;;;5.96;100.00;102754.16;5077677;28;19920;-81
2022/01/16 20:22:23;;;;;;;;;;;;;;;5.96;100.00;102754.16;5065450;28;20013;-81
2022/01/16 20:24:48;;;;;;;;;;;;;;;5.96;100.00;102764.63;5094550;28;19920;-83
2022/01/16 20:27:14;;;;;;;;;;;;;;;5.97;100.00;102769.13;5064544;28;19944;-81